sensor_id;sensor_type;location;lat;lon;timestamp;pressure;altitude;pressure_sealevel;temperature;humidity
22580;BME280;11456;47.030;15.396;2023-05-22T00:00:21;97460.25;;;15.61;88.24
22580;BME280;11456;47.030;15.396;2023-05-22T00:02:48;97460.59;;;15.58;88.79
22580;BME280;11456;47.030;15.396;2023-05-22T00:05:16;97463.56;;;15.34;89.96
22580;BME280;11456;47.030;15.396;2023-05-22T00:07:43;97457.75;;;15.37;89.96
22580;BME280;11456;47.030;15.396;2023-05-22T00:10:11;97457.31;;;15.33;90.37
22580;BME280;11456;47.030;15.396;2023-05-22T00:12:38;97460.19;;;15.32;90.09
22580;BME280;11456;47.030;15.396;2023-05-22T00:15:04;97462.63;;;15.27;90.61
22580;BME280;11456;47.030;15.396;2023-05-22T00:17:31;97454.00;;;15.08;91.63
22580;BME280;11456;47.030;15.396;2023-05-22T00:19:59;97455.97;;;15.00;92.32
22580;BME280;11456;47.030;15.396;2023-05-22T00:22:31;97453.06;;;15.01;92.27
22580;BME280;11456;47.030;15.396;2023-05-22T00:25:03;97451.22;;;15.16;91.89
22580;BME280;11456;47.030;15.396;2023-05-22T00:27:31;97445.59;;;15.03;92.04
22580;BME280;11456;47.030;15.396;2023-05-22T00:29:58;97447.75;;;15.08;91.62
22580;BME280;11456;47.030;15.396;2023-05-22T00:32:25;97442.69;;;15.19;90.91
22580;BME280;11456;47.030;15.396;2023-05-22T00:34:51;97447.94;;;15.06;91.10
22580;BME280;11456;47.030;15.396;2023-05-22T00:37:18;97442.22;;;15.01;91.66
22580;BME280;11456;47.030;15.396;2023-05-22T00:39:45;97436.69;;;14.95;92.03
22580;BME280;11456;47.030;15.396;2023-05-22T00:42:12;97432.00;;;14.89;92.70
22580;BME280;11456;47.030;15.396;2023-05-22T00:44:38;97434.53;;;14.90;92.61
22580;BME280;11456;47.030;15.396;2023-05-22T00:47:05;97422.00;;;14.89;92.80
22580;BME280;11456;47.030;15.396;2023-05-22T00:49:33;97433.81;;;14.96;92.69
22580;BME280;11456;47.030;15.396;2023-05-22T00:51:59;97426.03;;;14.93;92.91
22580;BME280;11456;47.030;15.396;2023-05-22T00:54:27;97422.22;;;15.02;93.23
22580;BME280;11456;47.030;15.396;2023-05-22T00:56:54;97424.25;;;15.00;92.93
22580;BME280;11456;47.030;15.396;2023-05-22T00:59:20;97423.09;;;14.80;93.41
22580;BME280;11456;47.030;15.396;2023-05-22T01:01:47;97423.28;;;14.64;95.03
22580;BME280;11456;47.030;15.396;2023-05-22T01:04:14;97422.16;;;14.58;95.98
22580;BME280;11456;47.030;15.396;2023-05-22T01:06:41;97427.00;;;14.63;96.58
22580;BME280;11456;47.030;15.396;2023-05-22T01:09:10;97421.41;;;14.79;95.67
22580;BME280;11456;47.030;15.396;2023-05-22T01:11:39;97419.03;;;14.84;95.25
22580;BME280;11456;47.030;15.396;2023-05-22T01:16:44;97469.78;;;14.53;99.19
22580;BME280;11456;47.030;15.396;2023-05-22T01:22:00;97464.78;;;14.79;100.00
22580;BME280;11456;47.030;15.396;2023-05-22T01:27:22;97452.31;;;15.07;100.00
22580;BME280;11456;47.030;15.396;2023-05-22T01:32:27;97426.91;;;15.67;100.00
22580;BME280;11456;47.030;15.396;2023-05-22T01:34:55;97428.47;;;15.76;100.00
22580;BME280;11456;47.030;15.396;2023-05-22T01:37:24;97424.63;;;15.85;100.00
22580;BME280;11456;47.030;15.396;2023-05-22T01:39:51;97430.66;;;15.66;100.00
22580;BME280;11456;47.030;15.396;2023-05-22T01:42:19;97433.09;;;15.61;100.00
22580;BME280;11456;47.030;15.396;2023-05-22T01:44:46;97442.03;;;15.76;100.00
22580;BME280;11456;47.030;15.396;2023-05-22T01:47:14;97444.34;;;15.94;100.00
22580;BME280;11456;47.030;15.396;2023-05-22T01:49:40;97443.44;;;15.87;100.00
22580;BME280;11456;47.030;15.396;2023-05-22T01:52:14;97446.69;;;15.82;100.00
22580;BME280;11456;47.030;15.396;2023-05-22T01:57:18;97438.59;;;16.03;100.00
22580;BME280;11456;47.030;15.396;2023-05-22T01:59:48;97438.25;;;16.07;100.00
22580;BME280;11456;47.030;15.396;2023-05-22T02:02:20;97439.75;;;15.94;100.00
22580;BME280;11456;47.030;15.396;2023-05-22T02:05:05;97443.34;;;15.80;100.00
22580;BME280;11456;47.030;15.396;2023-05-22T02:07:35;97442.25;;;15.60;100.00
22580;BME280;11456;47.030;15.396;2023-05-22T02:10:03;97429.72;;;15.59;100.00
22580;BME280;11456;47.030;15.396;2023-05-22T02:12:30;97427.88;;;16.17;99.90
22580;BME280;11456;47.030;15.396;2023-05-22T02:14:57;97422.06;;;15.98;100.00
22580;BME280;11456;47.030;15.396;2023-05-22T02:17:26;97417.34;;;15.71;100.00
22580;BME280;11456;47.030;15.396;2023-05-22T02:19:52;97427.06;;;15.80;100.00
22580;BME280;11456;47.030;15.396;2023-05-22T02:22:19;97417.06;;;15.51;100.00
22580;BME280;11456;47.030;15.396;2023-05-22T02:24:46;97421.72;;;15.43;100.00
22580;BME280;11456;47.030;15.396;2023-05-22T02:27:14;97426.53;;;15.41;100.00
22580;BME280;11456;47.030;15.396;2023-05-22T02:29:42;97415.84;;;15.24;100.00
22580;BME280;11456;47.030;15.396;2023-05-22T02:32:08;97417.25;;;15.20;100.00
22580;BME280;11456;47.030;15.396;2023-05-22T02:34:35;97412.69;;;15.36;100.00
22580;BME280;11456;47.030;15.396;2023-05-22T02:37:04;97418.28;;;15.19;100.00
22580;BME280;11456;47.030;15.396;2023-05-22T02:39:31;97423.34;;;15.22;100.00
22580;BME280;11456;47.030;15.396;2023-05-22T02:41:57;97417.19;;;15.29;100.00
22580;BME280;11456;47.030;15.396;2023-05-22T02:44:24;97420.91;;;15.28;100.00
22580;BME280;11456;47.030;15.396;2023-05-22T02:46:50;97414.63;;;15.12;100.00
22580;BME280;11456;47.030;15.396;2023-05-22T02:49:17;97411.56;;;15.15;100.00
22580;BME280;11456;47.030;15.396;2023-05-22T02:51:44;97411.91;;;15.12;100.00
22580;BME280;11456;47.030;15.396;2023-05-22T02:54:13;97411.28;;;15.10;100.00
22580;BME280;11456;47.030;15.396;2023-05-22T02:56:41;97407.25;;;15.06;100.00
22580;BME280;11456;47.030;15.396;2023-05-22T02:59:09;97406.78;;;15.03;100.00
22580;BME280;11456;47.030;15.396;2023-05-22T03:01:36;97404.81;;;15.11;100.00
22580;BME280;11456;47.030;15.396;2023-05-22T03:04:04;97413.97;;;15.25;100.00
22580;BME280;11456;47.030;15.396;2023-05-22T03:06:31;97417.19;;;15.29;100.00
22580;BME280;11456;47.030;15.396;2023-05-22T03:08:58;97425.00;;;15.23;100.00
22580;BME280;11456;47.030;15.396;2023-05-22T03:11:24;97416.72;;;15.10;100.00
22580;BME280;11456;47.030;15.396;2023-05-22T03:13:51;97419.13;;;14.91;100.00
22580;BME280;11456;47.030;15.396;2023-05-22T03:16:17;97419.28;;;14.74;100.00
22580;BME280;11456;47.030;15.396;2023-05-22T03:18:46;97419.75;;;14.78;100.00
22580;BME280;11456;47.030;15.396;2023-05-22T03:21:13;97423.59;;;14.83;100.00
22580;BME280;11456;47.030;15.396;2023-05-22T03:23:39;97420.69;;;14.85;100.00
22580;BME280;11456;47.030;15.396;2023-05-22T03:26:06;97420.84;;;14.69;100.00
22580;BME280;11456;47.030;15.396;2023-05-22T03:28:35;97420.75;;;14.62;100.00
22580;BME280;11456;47.030;15.396;2023-05-22T03:31:02;97414.75;;;14.67;100.00
22580;BME280;11456;47.030;15.396;2023-05-22T03:33:37;97405.25;;;14.71;100.00
22580;BME280;11456;47.030;15.396;2023-05-22T03:36:03;97409.84;;;14.85;100.00
22580;BME280;11456;47.030;15.396;2023-05-22T03:38:30;97406.09;;;14.86;100.00
22580;BME280;11456;47.030;15.396;2023-05-22T03:40:57;97406.47;;;14.83;100.00
22580;BME280;11456;47.030;15.396;2023-05-22T03:43:23;97408.38;;;14.97;100.00
22580;BME280;11456;47.030;15.396;2023-05-22T03:45:50;97409.38;;;14.81;100.00
22580;BME280;11456;47.030;15.396;2023-05-22T03:48:16;97405.03;;;14.72;100.00
22580;BME280;11456;47.030;15.396;2023-05-22T03:50:43;97403.97;;;14.96;100.00
22580;BME280;11456;47.030;15.396;2023-05-22T03:53:11;97399.28;;;15.05;100.00
22580;BME280;11456;47.030;15.396;2023-05-22T03:55:37;97400.88;;;14.99;100.00
22580;BME280;11456;47.030;15.396;2023-05-22T03:58:03;97400.25;;;14.97;100.00
22580;BME280;11456;47.030;15.396;2023-05-22T04:00:31;97398.84;;;15.01;100.00
22580;BME280;11456;47.030;15.396;2023-05-22T04:02:58;97410.03;;;14.98;100.00
22580;BME280;11456;47.030;15.396;2023-05-22T04:05:25;97403.78;;;15.12;100.00
22580;BME280;11456;47.030;15.396;2023-05-22T04:07:51;97406.59;;;15.19;100.00
22580;BME280;11456;47.030;15.396;2023-05-22T04:10:19;97406.31;;;15.29;100.00
22580;BME280;11456;47.030;15.396;2023-05-22T04:12:50;97412.09;;;15.25;100.00
22580;BME280;11456;47.030;15.396;2023-05-22T04:15:17;97409.66;;;15.31;100.00
22580;BME280;11456;47.030;15.396;2023-05-22T04:17:43;97409.66;;;15.31;100.00
22580;BME280;11456;47.030;15.396;2023-05-22T04:20:11;97403.22;;;15.46;100.00
22580;BME280;11456;47.030;15.396;2023-05-22T04:22:38;97404.91;;;15.47;100.00
22580;BME280;11456;47.030;15.396;2023-05-22T04:25:05;97407.72;;;15.54;100.00
22580;BME280;11456;47.030;15.396;2023-05-22T04:27:31;97403.41;;;15.74;100.00
22580;BME280;11456;47.030;15.396;2023-05-22T04:29:59;97405.09;;;15.96;100.00
22580;BME280;11456;47.030;15.396;2023-05-22T04:32:27;97406.25;;;15.87;100.00
22580;BME280;11456;47.030;15.396;2023-05-22T04:34:55;97404.03;;;15.76;100.00
22580;BME280;11456;47.030;15.396;2023-05-22T04:37:23;97421.47;;;15.67;100.00
22580;BME280;11456;47.030;15.396;2023-05-22T04:39:54;97410.47;;;15.75;100.00
22580;BME280;11456;47.030;15.396;2023-05-22T04:42:23;97415.91;;;15.75;100.00
22580;BME280;11456;47.030;15.396;2023-05-22T04:44:50;97413.72;;;16.00;100.00
22580;BME280;11456;47.030;15.396;2023-05-22T04:47:23;97415.91;;;16.32;100.00
22580;BME280;11456;47.030;15.396;2023-05-22T04:49:49;97418.84;;;16.31;100.00
22580;BME280;11456;47.030;15.396;2023-05-22T04:52:17;97422.59;;;16.51;100.00
22580;BME280;11456;47.030;15.396;2023-05-22T04:54:43;97418.81;;;16.52;100.00
22580;BME280;11456;47.030;15.396;2023-05-22T04:57:12;97419.81;;;16.44;100.00
22580;BME280;11456;47.030;15.396;2023-05-22T04:59:38;97422.44;;;16.59;100.00
22580;BME280;11456;47.030;15.396;2023-05-22T05:02:07;97426.84;;;16.81;100.00
22580;BME280;11456;47.030;15.396;2023-05-22T05:04:34;97425.75;;;16.55;100.00
22580;BME280;11456;47.030;15.396;2023-05-22T05:07:01;97428.03;;;16.72;100.00
22580;BME280;11456;47.030;15.396;2023-05-22T05:09:28;97423.53;;;16.86;100.00
22580;BME280;11456;47.030;15.396;2023-05-22T05:11:54;97423.31;;;17.09;100.00
22580;BME280;11456;47.030;15.396;2023-05-22T05:14:21;97424.56;;;17.13;100.00
22580;BME280;11456;47.030;15.396;2023-05-22T05:16:48;97426.00;;;17.43;100.00
22580;BME280;11456;47.030;15.396;2023-05-22T05:19:17;97423.47;;;17.70;100.00
22580;BME280;11456;47.030;15.396;2023-05-22T05:21:47;97423.13;;;17.86;99.68
22580;BME280;11456;47.030;15.396;2023-05-22T05:24:15;97422.34;;;18.05;98.55
22580;BME280;11456;47.030;15.396;2023-05-22T05:26:43;97413.72;;;17.95;98.81
22580;BME280;11456;47.030;15.396;2023-05-22T05:29:10;97420.03;;;18.09;97.59
22580;BME280;11456;47.030;15.396;2023-05-22T05:31:48;97421.75;;;18.16;95.23
22580;BME280;11456;47.030;15.396;2023-05-22T05:34:36;97412.16;;;18.47;93.71
22580;BME280;11456;47.030;15.396;2023-05-22T05:37:09;97420.38;;;18.79;93.33
22580;BME280;11456;47.030;15.396;2023-05-22T05:39:36;97418.91;;;19.03;92.15
22580;BME280;11456;47.030;15.396;2023-05-22T05:42:05;97421.81;;;19.21;89.25
22580;BME280;11456;47.030;15.396;2023-05-22T05:44:32;97428.56;;;19.19;87.93
22580;BME280;11456;47.030;15.396;2023-05-22T05:46:58;97423.66;;;19.54;88.25
22580;BME280;11456;47.030;15.396;2023-05-22T05:49:26;97422.94;;;19.85;87.18
22580;BME280;11456;47.030;15.396;2023-05-22T05:51:53;97420.03;;;19.73;83.08
22580;BME280;11456;47.030;15.396;2023-05-22T05:54:21;97420.78;;;19.93;83.66
22580;BME280;11456;47.030;15.396;2023-05-22T05:56:51;97418.63;;;20.09;79.35
22580;BME280;11456;47.030;15.396;2023-05-22T05:59:17;97426.13;;;20.20;80.48
22580;BME280;11456;47.030;15.396;2023-05-22T06:02:13;97416.38;;;20.37;80.65
22580;BME280;11456;47.030;15.396;2023-05-22T06:04:40;97413.38;;;20.76;79.20
22580;BME280;11456;47.030;15.396;2023-05-22T06:07:08;97411.53;;;20.70;76.33
22580;BME280;11456;47.030;15.396;2023-05-22T06:09:40;97405.25;;;21.13;76.07
22580;BME280;11456;47.030;15.396;2023-05-22T06:12:14;97417.69;;;20.91;74.71
22580;BME280;11456;47.030;15.396;2023-05-22T06:14:43;97414.88;;;20.72;74.47
22580;BME280;11456;47.030;15.396;2023-05-22T06:17:10;97415.25;;;20.51;73.99
22580;BME280;11456;47.030;15.396;2023-05-22T06:19:39;97416.44;;;21.36;73.78
22580;BME280;11456;47.030;15.396;2023-05-22T06:22:07;97411.97;;;22.15;71.73
22580;BME280;11456;47.030;15.396;2023-05-22T06:24:36;97411.03;;;21.30;67.71
22580;BME280;11456;47.030;15.396;2023-05-22T06:27:09;97418.44;;;21.84;69.14
22580;BME280;11456;47.030;15.396;2023-05-22T06:29:36;97405.50;;;21.73;67.23
22580;BME280;11456;47.030;15.396;2023-05-22T06:32:03;97414.91;;;22.02;67.59
22580;BME280;11456;47.030;15.396;2023-05-22T06:34:30;97416.00;;;22.12;66.64
22580;BME280;11456;47.030;15.396;2023-05-22T06:36:57;97414.34;;;22.11;67.95
22580;BME280;11456;47.030;15.396;2023-05-22T06:39:29;97416.41;;;22.46;64.25
22580;BME280;11456;47.030;15.396;2023-05-22T06:42:20;97420.59;;;21.82;66.39
22580;BME280;11456;47.030;15.396;2023-05-22T06:45:19;97418.78;;;22.54;61.40
22580;BME280;11456;47.030;15.396;2023-05-22T06:48:14;97429.28;;;22.75;63.60
22580;BME280;11456;47.030;15.396;2023-05-22T06:51:01;97413.22;;;23.13;62.32
22580;BME280;11456;47.030;15.396;2023-05-22T06:53:28;97427.06;;;23.18;60.90
22580;BME280;11456;47.030;15.396;2023-05-22T06:55:55;97428.16;;;23.87;61.47
22580;BME280;11456;47.030;15.396;2023-05-22T06:58:33;97415.16;;;23.48;61.00
22580;BME280;11456;47.030;15.396;2023-05-22T07:01:01;97419.06;;;23.87;59.17
22580;BME280;11456;47.030;15.396;2023-05-22T07:03:34;97426.31;;;24.05;60.20
22580;BME280;11456;47.030;15.396;2023-05-22T07:06:36;97427.53;;;24.65;57.26
22580;BME280;11456;47.030;15.396;2023-05-22T07:09:07;97428.03;;;24.62;55.35
22580;BME280;11456;47.030;15.396;2023-05-22T07:11:34;97429.03;;;24.56;55.92
22580;BME280;11456;47.030;15.396;2023-05-22T07:14:03;97421.13;;;25.22;52.56
22580;BME280;11456;47.030;15.396;2023-05-22T07:16:30;97416.81;;;24.52;54.37
22580;BME280;11456;47.030;15.396;2023-05-22T07:18:57;97414.44;;;25.01;51.83
22580;BME280;11456;47.030;15.396;2023-05-22T07:21:24;97419.94;;;25.17;52.96
22580;BME280;11456;47.030;15.396;2023-05-22T07:23:52;97412.97;;;25.48;51.29
22580;BME280;11456;47.030;15.396;2023-05-22T07:26:19;97415.69;;;25.82;50.89
22580;BME280;11456;47.030;15.396;2023-05-22T07:28:56;97416.06;;;25.52;47.52
22580;BME280;11456;47.030;15.396;2023-05-22T07:31:23;97415.41;;;25.62;48.46
22580;BME280;11456;47.030;15.396;2023-05-22T07:33:50;97417.47;;;25.93;48.89
22580;BME280;11456;47.030;15.396;2023-05-22T07:36:17;97416.41;;;26.16;44.46
22580;BME280;11456;47.030;15.396;2023-05-22T07:38:44;97419.16;;;26.16;44.92
22580;BME280;11456;47.030;15.396;2023-05-22T07:41:12;97407.94;;;26.98;41.56
22580;BME280;11456;47.030;15.396;2023-05-22T07:43:38;97420.25;;;26.85;40.55
22580;BME280;11456;47.030;15.396;2023-05-22T07:46:06;97414.50;;;26.65;41.92
22580;BME280;11456;47.030;15.396;2023-05-22T07:48:42;97407.66;;;26.94;41.31
22580;BME280;11456;47.030;15.396;2023-05-22T07:51:09;97414.38;;;27.08;41.31
22580;BME280;11456;47.030;15.396;2023-05-22T07:53:36;97418.91;;;26.61;40.99
22580;BME280;11456;47.030;15.396;2023-05-22T07:56:03;97408.41;;;26.90;43.11
22580;BME280;11456;47.030;15.396;2023-05-22T07:58:30;97413.44;;;27.25;41.45
22580;BME280;11456;47.030;15.396;2023-05-22T08:00:57;97409.22;;;27.96;43.18
22580;BME280;11456;47.030;15.396;2023-05-22T08:03:24;97412.81;;;27.97;41.13
22580;BME280;11456;47.030;15.396;2023-05-22T08:05:51;97405.03;;;27.93;41.69
22580;BME280;11456;47.030;15.396;2023-05-22T08:08:18;97405.78;;;28.31;39.65
22580;BME280;11456;47.030;15.396;2023-05-22T08:10:44;97411.94;;;27.91;39.37
22580;BME280;11456;47.030;15.396;2023-05-22T08:13:28;97411.91;;;26.10;43.77
22580;BME280;11456;47.030;15.396;2023-05-22T08:15:54;97411.38;;;27.47;40.42
22580;BME280;11456;47.030;15.396;2023-05-22T08:18:26;97409.34;;;27.69;39.80
22580;BME280;11456;47.030;15.396;2023-05-22T08:20:54;97406.75;;;28.05;41.56
22580;BME280;11456;47.030;15.396;2023-05-22T08:23:21;97401.72;;;28.59;38.30
22580;BME280;11456;47.030;15.396;2023-05-22T08:25:48;97394.31;;;28.85;38.13
22580;BME280;11456;47.030;15.396;2023-05-22T08:28:15;97402.56;;;28.69;40.32
22580;BME280;11456;47.030;15.396;2023-05-22T08:30:42;97394.84;;;28.82;37.47
22580;BME280;11456;47.030;15.396;2023-05-22T08:33:09;97391.69;;;28.43;38.07
22580;BME280;11456;47.030;15.396;2023-05-22T08:35:35;97395.31;;;27.44;43.98
22580;BME280;11456;47.030;15.396;2023-05-22T08:38:02;97397.53;;;28.46;37.15
22580;BME280;11456;47.030;15.396;2023-05-22T08:40:34;97397.53;;;28.41;38.89
22580;BME280;11456;47.030;15.396;2023-05-22T08:43:07;97402.53;;;27.92;40.03
22580;BME280;11456;47.030;15.396;2023-05-22T08:45:33;97392.00;;;28.46;38.93
22580;BME280;11456;47.030;15.396;2023-05-22T08:48:03;97398.50;;;27.63;40.48
22580;BME280;11456;47.030;15.396;2023-05-22T08:50:34;97401.22;;;27.21;41.93
22580;BME280;11456;47.030;15.396;2023-05-22T08:53:07;97395.72;;;28.10;41.20
22580;BME280;11456;47.030;15.396;2023-05-22T08:55:36;97390.63;;;28.59;39.81
22580;BME280;11456;47.030;15.396;2023-05-22T08:58:03;97390.72;;;28.12;40.27
22580;BME280;11456;47.030;15.396;2023-05-22T09:00:29;97386.84;;;28.80;39.58
22580;BME280;11456;47.030;15.396;2023-05-22T09:02:56;97385.66;;;27.88;39.86
22580;BME280;11456;47.030;15.396;2023-05-22T09:05:23;97389.75;;;28.38;39.44
22580;BME280;11456;47.030;15.396;2023-05-22T09:07:53;97384.50;;;27.79;39.73
22580;BME280;11456;47.030;15.396;2023-05-22T09:10:23;97383.06;;;27.35;41.37
22580;BME280;11456;47.030;15.396;2023-05-22T09:13:06;97387.09;;;28.79;39.05
22580;BME280;11456;47.030;15.396;2023-05-22T09:15:35;97383.78;;;29.02;38.28
22580;BME280;11456;47.030;15.396;2023-05-22T09:18:02;97383.78;;;29.53;37.83
22580;BME280;11456;47.030;15.396;2023-05-22T09:20:29;97391.56;;;29.10;36.04
22580;BME280;11456;47.030;15.396;2023-05-22T09:22:59;97389.59;;;29.26;35.48
22580;BME280;11456;47.030;15.396;2023-05-22T09:25:27;97383.25;;;29.35;37.36
22580;BME280;11456;47.030;15.396;2023-05-22T09:27:54;97382.94;;;28.76;36.18
22580;BME280;11456;47.030;15.396;2023-05-22T09:30:21;97383.16;;;28.64;37.97
22580;BME280;11456;47.030;15.396;2023-05-22T09:32:47;97388.88;;;27.70;38.80
22580;BME280;11456;47.030;15.396;2023-05-22T09:35:14;97383.53;;;29.49;35.95
22580;BME280;11456;47.030;15.396;2023-05-22T09:37:41;97395.91;;;28.65;36.45
22580;BME280;11456;47.030;15.396;2023-05-22T09:40:10;97389.81;;;29.85;35.49
22580;BME280;11456;47.030;15.396;2023-05-22T09:42:37;97384.88;;;28.96;36.16
22580;BME280;11456;47.030;15.396;2023-05-22T09:45:06;97393.22;;;28.13;37.17
22580;BME280;11456;47.030;15.396;2023-05-22T09:47:33;97383.31;;;28.17;36.54
22580;BME280;11456;47.030;15.396;2023-05-22T09:50:03;97377.31;;;29.93;33.04
22580;BME280;11456;47.030;15.396;2023-05-22T09:52:32;97377.13;;;28.88;32.89
22580;BME280;11456;47.030;15.396;2023-05-22T09:55:03;97377.50;;;28.14;34.10
22580;BME280;11456;47.030;15.396;2023-05-22T09:57:31;97383.66;;;30.03;30.96
22580;BME280;11456;47.030;15.396;2023-05-22T10:00:00;97379.88;;;29.59;34.20
22580;BME280;11456;47.030;15.396;2023-05-22T10:02:36;97375.44;;;29.58;31.03
22580;BME280;11456;47.030;15.396;2023-05-22T10:05:05;97381.75;;;28.57;32.64
22580;BME280;11456;47.030;15.396;2023-05-22T10:07:42;97375.47;;;29.47;31.42
22580;BME280;11456;47.030;15.396;2023-05-22T10:10:11;97379.16;;;28.15;33.04
22580;BME280;11456;47.030;15.396;2023-05-22T10:12:41;97364.72;;;28.13;32.23
22580;BME280;11456;47.030;15.396;2023-05-22T10:15:09;97361.88;;;29.16;31.35
22580;BME280;11456;47.030;15.396;2023-05-22T10:17:36;97369.84;;;28.46;32.46
22580;BME280;11456;47.030;15.396;2023-05-22T10:20:03;97369.94;;;28.97;32.01
22580;BME280;11456;47.030;15.396;2023-05-22T10:22:34;97358.22;;;29.76;31.36
22580;BME280;11456;47.030;15.396;2023-05-22T10:25:02;97365.44;;;28.60;34.12
22580;BME280;11456;47.030;15.396;2023-05-22T10:27:28;97363.28;;;28.98;33.82
22580;BME280;11456;47.030;15.396;2023-05-22T10:32:56;97365.47;;;27.98;32.82
22580;BME280;11456;47.030;15.396;2023-05-22T10:40:54;97364.28;;;29.88;31.15
22580;BME280;11456;47.030;15.396;2023-05-22T10:43:21;97357.72;;;29.23;31.40
22580;BME280;11456;47.030;15.396;2023-05-22T10:45:48;97353.16;;;30.47;30.93
22580;BME280;11456;47.030;15.396;2023-05-22T10:48:14;97350.88;;;30.10;30.69
22580;BME280;11456;47.030;15.396;2023-05-22T10:50:50;97355.78;;;28.98;33.10
22580;BME280;11456;47.030;15.396;2023-05-22T10:53:21;97360.22;;;28.84;32.25
22580;BME280;11456;47.030;15.396;2023-05-22T10:58:15;97341.03;;;29.64;31.67
22580;BME280;11456;47.030;15.396;2023-05-22T11:00:43;97331.13;;;30.66;32.27
22580;BME280;11456;47.030;15.396;2023-05-22T11:03:09;97330.44;;;30.35;30.96
22580;BME280;11456;47.030;15.396;2023-05-22T11:05:43;97324.94;;;29.61;31.89
22580;BME280;11456;47.030;15.396;2023-05-22T11:10:53;97325.47;;;29.68;31.30
22580;BME280;11456;47.030;15.396;2023-05-22T11:13:20;97318.16;;;29.97;31.02
22580;BME280;11456;47.030;15.396;2023-05-22T11:15:53;97315.00;;;29.34;31.29
22580;BME280;11456;47.030;15.396;2023-05-22T11:18:20;97323.31;;;28.68;32.16
22580;BME280;11456;47.030;15.396;2023-05-22T11:20:47;97319.16;;;30.21;29.31
22580;BME280;11456;47.030;15.396;2023-05-22T11:23:14;97312.03;;;29.90;31.16
22580;BME280;11456;47.030;15.396;2023-05-22T11:25:43;97307.25;;;28.96;33.12
22580;BME280;11456;47.030;15.396;2023-05-22T11:28:10;97301.53;;;29.87;31.05
22580;BME280;11456;47.030;15.396;2023-05-22T11:30:37;97296.81;;;29.87;31.01
22580;BME280;11456;47.030;15.396;2023-05-22T11:33:04;97297.25;;;29.40;33.64
22580;BME280;11456;47.030;15.396;2023-05-22T11:35:32;97295.72;;;30.38;31.51
22580;BME280;11456;47.030;15.396;2023-05-22T11:37:58;97293.25;;;30.75;29.96
22580;BME280;11456;47.030;15.396;2023-05-22T11:40:28;97301.13;;;29.19;30.62
22580;BME280;11456;47.030;15.396;2023-05-22T11:42:55;97300.63;;;28.92;30.70
22580;BME280;11456;47.030;15.396;2023-05-22T11:45:22;97291.97;;;29.14;31.01
22580;BME280;11456;47.030;15.396;2023-05-22T11:47:49;97285.63;;;29.03;31.08
22580;BME280;11456;47.030;15.396;2023-05-22T11:50:16;97277.63;;;29.96;30.09
22580;BME280;11456;47.030;15.396;2023-05-22T11:53:02;97284.47;;;29.19;31.70
22580;BME280;11456;47.030;15.396;2023-05-22T11:55:29;97285.09;;;28.76;32.21
22580;BME280;11456;47.030;15.396;2023-05-22T11:57:56;97287.88;;;28.91;33.56
22580;BME280;11456;47.030;15.396;2023-05-22T12:00:23;97281.44;;;29.21;32.59
22580;BME280;11456;47.030;15.396;2023-05-22T12:02:49;97267.63;;;29.90;31.34
22580;BME280;11456;47.030;15.396;2023-05-22T12:05:18;97279.00;;;28.79;33.19
22580;BME280;11456;47.030;15.396;2023-05-22T12:07:45;97267.13;;;29.83;31.25
22580;BME280;11456;47.030;15.396;2023-05-22T12:10:12;97264.25;;;29.34;31.35
22580;BME280;11456;47.030;15.396;2023-05-22T12:12:39;97278.38;;;28.21;32.80
22580;BME280;11456;47.030;15.396;2023-05-22T12:15:06;97286.19;;;28.64;32.06
22580;BME280;11456;47.030;15.396;2023-05-22T12:17:34;97269.31;;;28.86;31.94
22580;BME280;11456;47.030;15.396;2023-05-22T12:20:01;97271.66;;;29.59;29.11
22580;BME280;11456;47.030;15.396;2023-05-22T12:22:27;97269.88;;;29.93;29.58
22580;BME280;11456;47.030;15.396;2023-05-22T12:24:55;97272.34;;;28.54;31.74
22580;BME280;11456;47.030;15.396;2023-05-22T12:27:21;97271.75;;;28.37;32.28
22580;BME280;11456;47.030;15.396;2023-05-22T12:29:48;97256.75;;;29.29;29.83
22580;BME280;11456;47.030;15.396;2023-05-22T12:32:14;97251.59;;;29.77;29.49
22580;BME280;11456;47.030;15.396;2023-05-22T12:34:44;97254.31;;;28.97;31.34
22580;BME280;11456;47.030;15.396;2023-05-22T12:37:18;97254.59;;;28.91;31.50
22580;BME280;11456;47.030;15.396;2023-05-22T12:42:20;97260.91;;;29.22;29.97
22580;BME280;11456;47.030;15.396;2023-05-22T12:44:47;97255.16;;;28.93;29.82
22580;BME280;11456;47.030;15.396;2023-05-22T12:47:13;97259.53;;;29.14;31.08
22580;BME280;11456;47.030;15.396;2023-05-22T12:49:40;97265.69;;;28.60;31.84
22580;BME280;11456;47.030;15.396;2023-05-22T12:52:06;97257.31;;;28.25;32.16
22580;BME280;11456;47.030;15.396;2023-05-22T12:54:33;97258.19;;;28.66;31.46
22580;BME280;11456;47.030;15.396;2023-05-22T12:57:00;97256.28;;;28.92;31.42
22580;BME280;11456;47.030;15.396;2023-05-22T12:59:26;97260.69;;;28.73;32.12
22580;BME280;11456;47.030;15.396;2023-05-22T13:01:53;97259.56;;;28.63;31.18
22580;BME280;11456;47.030;15.396;2023-05-22T13:04:20;97249.81;;;29.22;30.96
22580;BME280;11456;47.030;15.396;2023-05-22T13:06:46;97241.31;;;28.83;32.82
22580;BME280;11456;47.030;15.396;2023-05-22T13:09:13;97249.63;;;28.78;32.94
22580;BME280;11456;47.030;15.396;2023-05-22T13:11:42;97246.81;;;28.62;34.76
22580;BME280;11456;47.030;15.396;2023-05-22T13:14:08;97249.06;;;28.81;32.07
22580;BME280;11456;47.030;15.396;2023-05-22T13:16:35;97250.19;;;30.34;31.48
22580;BME280;11456;47.030;15.396;2023-05-22T13:19:02;97241.69;;;30.54;30.81
22580;BME280;11456;47.030;15.396;2023-05-22T13:21:28;97238.03;;;30.63;29.81
22580;BME280;11456;47.030;15.396;2023-05-22T13:23:55;97236.13;;;30.59;31.26